createdAt,value
2018-08-24T00:01:35.549Z,10.67
2018-08-24T00:04:08.273Z,8.93
2018-08-24T00:06:38.077Z,10.80
2018-08-24T00:09:12.576Z,10.30
2018-08-24T00:11:41.354Z,10.53
2018-08-24T00:14:10.997Z,11.13
2018-08-24T00:16:40.779Z,10.40
2018-08-24T00:19:15.432Z,12.47
2018-08-24T00:21:44.617Z,11.60
2018-08-24T00:24:13.888Z,11.40
2018-08-24T00:26:42.448Z,12.67
2018-08-24T00:29:11.420Z,13.77
2018-08-24T00:31:40.486Z,13.73
2018-08-24T00:34:09.043Z,13.03
2018-08-24T00:36:37.655Z,14.37
2018-08-24T00:39:08.108Z,13.77
2018-08-24T00:41:36.950Z,12.47
2018-08-24T00:44:05.589Z,11.47
2018-08-24T00:46:34.160Z,12.03
2018-08-24T00:49:02.893Z,10.90
2018-08-24T00:51:31.503Z,10.87
2018-08-24T00:54:00.064Z,10.40
2018-08-24T00:56:28.823Z,9.63
2018-08-24T00:58:57.375Z,9.70
2018-08-24T01:01:26.059Z,9.37
2018-08-24T01:03:54.603Z,9.60
2018-08-24T01:06:23.132Z,10.27
2018-08-24T01:08:51.825Z,11.53
2018-08-24T01:11:20.472Z,10.33
2018-08-24T01:13:51.651Z,9.03
2018-08-24T01:16:25.668Z,10.63
2018-08-24T01:18:54.269Z,10.10
2018-08-24T01:21:22.839Z,10.97
2018-08-24T01:23:51.676Z,12.17
2018-08-24T01:26:22.819Z,12.27
2018-08-24T01:28:52.806Z,9.90
2018-08-24T01:31:22.293Z,9.00
2018-08-24T01:33:50.839Z,10.40
2018-08-24T01:36:19.409Z,12.00
2018-08-24T01:38:47.976Z,9.53
2018-08-24T01:41:16.552Z,11.27
2018-08-24T01:43:45.120Z,10.47
2018-08-24T01:46:15.047Z,10.27
2018-08-24T01:48:43.660Z,12.80
2018-08-24T01:51:12.263Z,10.63
2018-08-24T01:53:40.988Z,12.20
2018-08-24T01:56:09.572Z,11.60
2018-08-24T01:58:38.129Z,10.67
2018-08-24T02:01:06.703Z,11.20
2018-08-24T02:03:35.484Z,11.30
2018-08-24T02:06:08.080Z,12.03
2018-08-24T02:08:37.732Z,9.77
2018-08-24T02:11:10.899Z,10.13
2018-08-24T02:13:45.913Z,10.07
2018-08-24T02:16:14.600Z,9.57
2018-08-24T02:18:48.275Z,9.00
2018-08-24T02:21:21.928Z,9.20
2018-08-24T02:23:50.464Z,8.43
2018-08-24T02:26:18.999Z,8.40
2018-08-24T02:28:47.551Z,9.87
2018-08-24T02:31:16.159Z,11.30
2018-08-24T02:33:44.673Z,10.33
2018-08-24T02:36:13.413Z,10.13
2018-08-24T02:38:41.940Z,9.37
2018-08-24T02:41:10.507Z,9.23
2018-08-24T02:43:39.045Z,9.17
2018-08-24T02:46:07.666Z,8.73
2018-08-24T02:48:36.209Z,8.60
2018-08-24T02:51:04.872Z,9.10
2018-08-24T02:53:33.481Z,8.13
2018-08-24T02:56:02.185Z,7.93
2018-08-24T02:58:30.716Z,8.50
2018-08-24T03:00:59.335Z,7.50
2018-08-24T03:03:27.892Z,8.70
2018-08-24T03:05:56.443Z,8.13
2018-08-24T03:08:25.090Z,6.60
2018-08-24T03:10:53.550Z,9.90
2018-08-24T03:13:22.157Z,9.17
2018-08-24T03:15:50.692Z,9.80
2018-08-24T03:18:19.244Z,9.17
2018-08-24T03:20:47.828Z,9.30
2018-08-24T03:23:16.459Z,9.27
2018-08-24T03:25:44.993Z,8.77
2018-08-24T03:28:13.542Z,8.77
2018-08-24T03:30:42.230Z,7.90
2018-08-24T03:33:10.812Z,7.30
2018-08-24T03:35:42.428Z,8.97
2018-08-24T03:38:11.051Z,8.40
2018-08-24T03:40:39.584Z,7.23
2018-08-24T03:43:08.140Z,8.00
2018-08-24T03:45:36.959Z,7.80
2018-08-24T03:48:06.383Z,8.83
2018-08-24T03:50:35.253Z,7.30
2018-08-24T03:53:04.693Z,7.27
2018-08-24T03:55:37.280Z,7.93
2018-08-24T03:58:07.265Z,8.03
2018-08-24T04:00:37.781Z,8.17
2018-08-24T04:03:06.351Z,9.10
2018-08-24T04:05:34.905Z,8.70
2018-08-24T04:08:03.463Z,8.10
2018-08-24T04:10:32.026Z,8.57
2018-08-24T04:13:00.619Z,7.60
2018-08-24T04:15:29.368Z,7.43
2018-08-24T04:17:57.917Z,7.10
2018-08-24T04:20:26.458Z,7.37
2018-08-24T04:22:55.042Z,8.33
2018-08-24T04:25:23.608Z,7.97
2018-08-24T04:27:52.152Z,6.90
2018-08-24T04:30:20.692Z,7.30
2018-08-24T04:32:49.256Z,8.27
2018-08-24T04:35:17.817Z,7.40
2018-08-24T04:37:46.403Z,7.40
2018-08-24T04:40:15.000Z,7.50
2018-08-24T04:42:43.562Z,6.77
2018-08-24T04:45:12.161Z,6.40
2018-08-24T04:47:40.700Z,6.70
2018-08-24T04:50:09.249Z,6.30
2018-08-24T04:52:37.896Z,7.40
2018-08-24T04:55:06.455Z,7.23
2018-08-24T04:57:34.990Z,7.50
2018-08-24T05:00:03.585Z,8.10
2018-08-24T05:02:32.119Z,8.60
2018-08-24T05:05:00.688Z,7.10
2018-08-24T05:07:29.210Z,6.90
2018-08-24T05:09:57.767Z,8.67
2018-08-24T05:13:00.928Z,7.50
2018-08-24T05:15:29.489Z,8.07
2018-08-24T05:17:58.087Z,7.37
2018-08-24T05:20:26.634Z,6.93
2018-08-24T05:22:55.178Z,7.20
2018-08-24T05:25:23.751Z,6.50
2018-08-24T05:27:52.284Z,7.73
2018-08-24T05:30:20.834Z,7.00
2018-08-24T05:32:50.210Z,7.17
2018-08-24T05:42:04.844Z,6.87
2018-08-24T05:48:05.825Z,7.20
2018-08-24T05:55:03.124Z,7.63
2018-08-24T05:57:31.673Z,7.57
2018-08-24T06:04:02.539Z,8.00
2018-08-24T06:06:31.127Z,7.53
2018-08-24T06:09:04.891Z,9.10
2018-08-24T06:11:33.421Z,9.30
2018-08-24T06:14:01.986Z,8.60
2018-08-24T06:16:30.556Z,9.33
2018-08-24T06:18:59.129Z,8.30
2018-08-24T06:21:27.676Z,9.47
2018-08-24T06:23:56.220Z,7.33
2018-08-24T06:26:24.809Z,9.00
2018-08-24T06:28:53.349Z,6.70
2018-08-24T06:31:21.900Z,7.20
2018-08-24T06:33:50.473Z,7.40
2018-08-24T06:36:19.052Z,7.40
2018-08-24T06:38:47.636Z,6.43
2018-08-24T06:41:16.208Z,9.80
2018-08-24T06:43:44.748Z,8.47
2018-08-24T06:46:13.311Z,8.00
2018-08-24T06:48:41.848Z,8.23
2018-08-24T06:51:10.400Z,8.37
2018-08-24T06:53:38.990Z,5.50
2018-08-24T06:56:07.525Z,7.40
2018-08-24T06:58:36.076Z,7.80
2018-08-24T07:01:04.652Z,7.20
2018-08-24T07:03:33.262Z,5.97
2018-08-24T07:06:01.864Z,6.60
2018-08-24T07:08:30.452Z,7.07
2018-08-24T07:10:58.991Z,8.00
2018-08-24T07:13:27.610Z,7.60
2018-08-24T07:15:56.140Z,7.53
2018-08-24T07:21:27.141Z,6.70
2018-08-24T07:23:55.676Z,7.00
2018-08-24T07:26:24.232Z,7.70
2018-08-24T07:28:52.797Z,6.53
2018-08-24T07:31:21.340Z,6.60
2018-08-24T07:33:49.915Z,7.27
2018-08-24T07:36:18.464Z,7.13
2018-08-24T07:38:47.065Z,7.23
2018-08-24T07:41:15.699Z,6.40
2018-08-24T07:43:44.267Z,7.27
2018-08-24T07:46:12.832Z,7.20
2018-08-24T07:48:41.361Z,6.50
2018-08-24T07:51:09.905Z,5.47
2018-08-24T07:53:38.455Z,6.40
2018-08-24T08:01:19.323Z,6.13
2018-08-24T08:03:47.928Z,19.00
2018-08-24T08:06:16.480Z,11.80
2018-08-24T08:08:45.040Z,11.13
2018-08-24T08:11:13.594Z,7.57
2018-08-24T08:13:42.152Z,6.60
2018-08-24T08:16:10.687Z,5.03
2018-08-24T08:18:39.421Z,4.40
2018-08-24T08:21:08.091Z,4.33
2018-08-24T08:23:36.910Z,4.87
2018-08-24T08:26:08.113Z,4.70
2018-08-24T08:28:36.767Z,5.17
2018-08-24T08:31:05.362Z,4.57
2018-08-24T08:33:33.906Z,4.00
2018-08-24T08:36:02.596Z,4.60
2018-08-24T08:38:31.144Z,4.73
2018-08-24T08:40:59.703Z,3.67
2018-08-24T08:43:28.273Z,4.57
2018-08-24T08:45:56.837Z,5.20
2018-08-24T08:48:25.367Z,4.83
2018-08-24T08:50:53.928Z,4.60
2018-08-24T08:53:22.508Z,5.10
2018-08-24T08:55:51.053Z,4.83
2018-08-24T08:58:19.596Z,5.03
2018-08-24T09:00:48.148Z,7.10
2018-08-24T09:03:16.663Z,6.40
2018-08-24T09:05:45.240Z,5.53
2018-08-24T09:08:13.764Z,5.33
2018-08-24T09:10:42.301Z,5.57
2018-08-24T09:13:10.850Z,4.63
2018-08-24T09:15:39.460Z,5.33
2018-08-24T09:18:13.088Z,4.67
2018-08-24T09:20:46.840Z,4.50
2018-08-24T09:23:20.536Z,5.07
2018-08-24T09:25:54.349Z,5.30
2018-08-24T09:28:27.970Z,5.00
2018-08-24T09:31:01.565Z,5.27
2018-08-24T09:33:30.085Z,3.93
2018-08-24T09:36:02.225Z,4.83
2018-08-24T09:38:32.800Z,5.30
2018-08-24T09:41:01.487Z,5.10
2018-08-24T09:43:35.274Z,4.80
2018-08-24T09:46:03.866Z,5.77
2018-08-24T09:48:36.543Z,5.43
2018-08-24T09:51:10.408Z,5.90
2018-08-24T09:53:44.151Z,5.40
2018-08-24T09:56:12.766Z,5.30
2018-08-24T09:58:41.352Z,6.10
2018-08-24T10:01:15.070Z,5.67
2018-08-24T10:03:48.645Z,6.07
2018-08-24T10:06:24.237Z,6.37
2018-08-24T10:08:52.790Z,6.17
2018-08-24T10:11:21.341Z,5.87
2018-08-24T10:13:49.876Z,6.50
2018-08-24T10:16:18.402Z,6.43
2018-08-24T10:18:47.011Z,7.67
2018-08-24T10:21:15.808Z,6.63
2018-08-24T10:23:44.365Z,6.10
2018-08-24T10:26:12.904Z,5.80
2018-08-24T10:28:41.452Z,8.70
2018-08-24T10:31:10.047Z,7.40
2018-08-24T10:33:38.803Z,8.30
2018-08-24T10:36:07.406Z,5.97
2018-08-24T10:38:36.342Z,7.37
2018-08-24T10:41:04.982Z,7.80
2018-08-24T10:43:33.560Z,7.70
2018-08-24T10:46:02.115Z,7.50
2018-08-24T10:48:30.646Z,6.93
2018-08-24T10:50:59.235Z,7.50
2018-08-24T10:53:27.818Z,8.60
2018-08-24T10:55:56.436Z,8.57
2018-08-24T10:58:24.945Z,7.40
2018-08-24T11:00:53.493Z,9.70
2018-08-24T11:03:22.213Z,8.53
2018-08-24T11:05:50.763Z,8.97
2018-08-24T11:08:19.365Z,10.13
2018-08-24T11:10:47.898Z,9.70
2018-08-24T11:13:16.473Z,7.97
2018-08-24T11:15:49.048Z,8.80
2018-08-24T11:18:18.083Z,10.20
2018-08-24T11:20:46.668Z,9.00
2018-08-24T11:23:15.252Z,9.90
2018-08-24T11:25:43.856Z,8.60
2018-08-24T11:28:12.459Z,9.30
2018-08-24T11:30:41.009Z,9.63
2018-08-24T11:33:09.661Z,10.00
2018-08-24T11:35:38.244Z,9.77
2018-08-24T11:38:06.840Z,11.77
2018-08-24T11:40:35.409Z,9.10
2018-08-24T11:43:04.018Z,9.43
2018-08-24T11:45:32.580Z,10.23
2018-08-24T11:48:01.184Z,10.17
2018-08-24T11:50:29.790Z,9.67
2018-08-24T11:52:58.343Z,10.63
2018-08-24T11:55:26.928Z,12.43
2018-08-24T11:57:55.520Z,12.00
2018-08-24T12:00:30.348Z,9.30
2018-08-24T12:03:00.187Z,9.47
2018-08-24T12:05:28.752Z,10.10
2018-08-24T12:07:57.469Z,8.97
2018-08-24T12:10:25.973Z,9.80
2018-08-24T12:12:54.539Z,10.47
2018-08-24T12:15:23.121Z,9.70
2018-08-24T12:17:51.747Z,9.97
2018-08-24T12:20:20.283Z,10.43
2018-08-24T12:22:48.904Z,8.80
2018-08-24T12:25:17.478Z,10.37
2018-08-24T12:27:46.027Z,9.20
2018-08-24T12:30:14.600Z,8.60
2018-08-24T12:32:43.175Z,8.10
2018-08-24T12:35:11.762Z,10.20
2018-08-24T12:37:48.245Z,7.87
2018-08-24T12:40:17.167Z,8.20
2018-08-24T12:42:45.883Z,10.23
2018-08-24T12:45:14.449Z,8.30
2018-08-24T12:47:43.045Z,7.63
2018-08-24T12:50:11.648Z,6.97
2018-08-24T12:52:40.248Z,6.90
2018-08-24T12:55:08.808Z,7.97
2018-08-24T12:57:37.414Z,7.23
2018-08-24T13:00:06.013Z,7.23
2018-08-24T13:02:34.557Z,7.63
2018-08-24T13:05:03.137Z,7.63
2018-08-24T13:07:32.595Z,8.57
2018-08-24T13:10:01.174Z,8.00
2018-08-24T13:12:29.719Z,5.90
2018-08-24T13:14:59.144Z,7.00
2018-08-24T13:17:27.708Z,6.37
2018-08-24T13:19:56.259Z,7.57
2018-08-24T13:22:24.824Z,6.50
2018-08-24T13:24:53.537Z,8.00
2018-08-24T13:27:22.192Z,7.37
2018-08-24T13:29:50.796Z,7.27
2018-08-24T13:32:19.343Z,7.13
2018-08-24T13:34:47.880Z,7.33
2018-08-24T13:37:16.460Z,6.63
2018-08-24T13:39:45.042Z,7.23
2018-08-24T13:42:13.654Z,6.70
2018-08-24T13:44:42.243Z,7.30
2018-08-24T13:47:10.842Z,6.77
2018-08-24T13:49:39.400Z,6.00
2018-08-24T13:52:11.002Z,7.10
2018-08-24T13:54:39.631Z,7.10
2018-08-24T13:57:08.206Z,7.47
2018-08-24T13:59:36.832Z,7.43
2018-08-24T14:02:05.516Z,6.77
2018-08-24T14:04:34.173Z,7.13
2018-08-24T14:07:02.748Z,7.10
2018-08-24T14:09:31.317Z,7.93
2018-08-24T14:11:59.869Z,6.30
2018-08-24T14:14:28.598Z,7.17
2018-08-24T14:16:57.158Z,5.83
2018-08-24T14:19:25.804Z,7.70
2018-08-24T14:21:54.423Z,8.93
2018-08-24T14:24:22.981Z,8.20
2018-08-24T14:26:51.560Z,7.17
2018-08-24T14:29:20.239Z,7.57
2018-08-24T14:31:48.920Z,7.30
2018-08-24T14:34:17.510Z,7.53
2018-08-24T14:36:46.113Z,7.20
2018-08-24T14:39:14.688Z,7.50
2018-08-24T14:41:43.355Z,7.13
2018-08-24T14:44:11.965Z,8.20
2018-08-24T14:46:40.772Z,7.03
2018-08-24T14:49:09.317Z,7.93
2018-08-24T14:51:37.872Z,7.97
2018-08-24T14:54:06.565Z,7.10
2018-08-24T14:56:35.273Z,6.60
2018-08-24T14:59:03.857Z,7.90
2018-08-24T15:01:32.467Z,7.67
2018-08-24T15:04:01.006Z,7.33
2018-08-24T15:06:29.567Z,6.93
2018-08-24T15:08:58.140Z,7.83
2018-08-24T15:11:26.683Z,7.63
2018-08-24T15:13:55.234Z,7.53
2018-08-24T15:16:23.822Z,6.37
2018-08-24T15:18:52.373Z,5.73
2018-08-24T15:21:20.914Z,7.30
2018-08-24T15:23:49.481Z,6.90
2018-08-24T15:26:18.073Z,6.90
2018-08-24T15:28:46.709Z,7.03
2018-08-24T15:31:16.143Z,6.80
2018-08-24T15:33:45.545Z,6.90
2018-08-24T15:36:14.093Z,6.50
2018-08-24T15:38:42.652Z,7.10
2018-08-24T15:41:11.208Z,6.43
2018-08-24T15:43:39.767Z,6.73
2018-08-24T15:46:08.449Z,6.80
2018-08-24T15:48:36.980Z,7.33
2018-08-24T15:51:05.876Z,6.60
2018-08-24T15:53:34.463Z,5.87
2018-08-24T15:56:03.056Z,6.50
2018-08-24T15:58:31.628Z,5.90
2018-08-24T16:01:00.198Z,5.93
2018-08-24T16:03:28.801Z,5.50
2018-08-24T16:05:57.507Z,7.17
2018-08-24T16:08:26.111Z,6.20
2018-08-24T16:10:54.696Z,6.27
2018-08-24T16:13:23.313Z,6.27
2018-08-24T16:15:51.869Z,5.77
2018-08-24T16:21:23.036Z,6.30
2018-08-24T16:23:51.716Z,6.10
2018-08-24T16:26:23.310Z,5.70
2018-08-24T16:28:52.418Z,5.53
2018-08-24T16:31:21.138Z,4.77
2018-08-24T16:33:49.813Z,5.33
2018-08-24T16:36:18.388Z,4.83
2018-08-24T16:38:46.988Z,6.00
2018-08-24T16:41:15.512Z,4.60
2018-08-24T16:43:44.180Z,5.00
2018-08-24T16:46:12.740Z,5.80
2018-08-24T16:48:41.370Z,5.37
2018-08-24T16:51:10.012Z,5.13
2018-08-24T16:53:38.540Z,5.70
2018-08-24T16:56:07.284Z,5.80
2018-08-24T16:58:35.894Z,5.80
2018-08-24T17:01:04.857Z,5.63
2018-08-24T17:03:33.449Z,6.53
2018-08-24T17:06:01.988Z,6.33
2018-08-24T17:08:30.659Z,6.60
2018-08-24T17:10:59.433Z,7.20
2018-08-24T17:13:27.972Z,6.67
2018-08-24T17:15:56.541Z,5.90
2018-08-24T17:18:25.095Z,7.20
2018-08-24T17:20:53.755Z,6.37
2018-08-24T17:23:23.216Z,6.17
2018-08-24T17:25:51.763Z,5.90
2018-08-24T17:28:20.340Z,5.20
2018-08-24T17:30:48.941Z,5.60
2018-08-24T17:33:17.501Z,5.50
2018-08-24T17:35:46.141Z,4.10
2018-08-24T17:38:14.706Z,4.77
2018-08-24T17:40:43.258Z,4.50
2018-08-24T17:43:11.799Z,4.40
2018-08-24T17:45:40.324Z,5.03
2018-08-24T17:48:09.094Z,4.60
2018-08-24T17:50:37.924Z,5.00
2018-08-24T17:53:06.535Z,4.83
2018-08-24T17:55:35.092Z,4.90
2018-08-24T17:58:03.652Z,5.87
2018-08-24T18:00:32.280Z,5.10
2018-08-24T18:03:00.828Z,4.97
2018-08-24T18:05:29.593Z,5.07
2018-08-24T18:07:58.170Z,5.47
2018-08-24T18:10:26.713Z,5.30
2018-08-24T18:12:55.263Z,4.50
2018-08-24T18:15:23.851Z,4.67
2018-08-24T18:17:52.437Z,5.20
2018-08-24T18:20:20.988Z,4.33
2018-08-24T18:22:49.575Z,4.27
2018-08-24T18:25:18.163Z,4.80
2018-08-24T18:27:46.816Z,5.20
2018-08-24T18:30:15.590Z,4.40
2018-08-24T18:32:44.077Z,5.17
2018-08-24T18:35:12.664Z,4.67
2018-08-24T18:37:41.208Z,4.17
2018-08-24T18:40:09.766Z,4.07
2018-08-24T18:42:38.363Z,3.87
2018-08-24T18:45:06.994Z,4.30
2018-08-24T18:47:36.005Z,5.03
2018-08-24T18:50:04.672Z,4.13
2018-08-24T18:52:33.232Z,4.10
2018-08-24T18:55:01.845Z,4.40
2018-08-24T18:57:30.411Z,4.47
2018-08-24T18:59:58.983Z,4.50
2018-08-24T19:02:27.529Z,4.97
2018-08-24T19:04:56.069Z,3.80
2018-08-24T19:07:24.758Z,4.70
2018-08-24T19:09:53.441Z,5.63
2018-08-24T19:12:27.651Z,5.20
2018-08-24T19:14:57.115Z,6.07
2018-08-24T19:17:30.748Z,5.90
2018-08-24T19:20:04.493Z,6.30
2018-08-24T19:22:33.067Z,6.27
2018-08-24T19:25:01.784Z,6.73
2018-08-24T19:27:35.519Z,5.93
2018-08-24T19:30:09.247Z,6.67
2018-08-24T19:32:38.115Z,6.93
2018-08-24T19:35:06.679Z,6.87
2018-08-24T19:37:35.361Z,7.30
2018-08-24T19:40:09.136Z,6.40
2018-08-24T19:42:37.699Z,5.50
2018-08-24T19:45:06.389Z,5.53
2018-08-24T19:47:40.686Z,5.40
2018-08-24T19:50:09.244Z,5.40
2018-08-24T19:52:37.814Z,5.40
2018-08-24T19:55:06.524Z,6.00
2018-08-24T19:57:40.191Z,5.40
2018-08-24T20:00:08.808Z,5.50
2018-08-24T20:02:38.297Z,5.80
2018-08-24T20:05:07.150Z,5.70
2018-08-24T20:07:41.016Z,5.50
2018-08-24T20:10:11.083Z,5.23
2018-08-24T20:12:40.528Z,4.50
2018-08-24T20:15:14.368Z,4.90
2018-08-24T20:17:42.994Z,4.07
2018-08-24T20:20:11.555Z,4.43
2018-08-24T20:22:40.130Z,4.10
2018-08-24T20:25:08.710Z,5.03
2018-08-24T20:27:37.316Z,4.70
2018-08-24T20:30:06.192Z,5.63
2018-08-24T20:32:35.496Z,4.03
2018-08-24T20:35:04.089Z,4.90
2018-08-24T20:37:32.652Z,5.87
2018-08-24T20:40:01.312Z,5.40
2018-08-24T20:42:29.811Z,4.53
2018-08-24T20:44:58.375Z,6.40
2018-08-24T20:47:27.345Z,4.70
2018-08-24T20:49:55.845Z,4.97
2018-08-24T20:52:24.399Z,5.97
2018-08-24T20:54:52.981Z,5.57
2018-08-24T20:57:21.567Z,5.87
2018-08-24T20:59:50.343Z,6.00
2018-08-24T21:02:18.961Z,6.03
2018-08-24T21:04:47.544Z,5.10
2018-08-24T21:07:16.109Z,4.90
2018-08-24T21:09:44.653Z,6.03
2018-08-24T21:12:13.422Z,5.07
2018-08-24T21:14:42.040Z,5.53
2018-08-24T21:17:10.740Z,5.50
2018-08-24T21:19:39.320Z,5.37
2018-08-24T21:22:07.872Z,6.40
2018-08-24T21:24:36.497Z,7.00
2018-08-24T21:27:05.367Z,6.70
2018-08-24T21:29:34.305Z,6.90
2018-08-24T21:32:03.154Z,6.70
2018-08-24T21:34:31.696Z,7.47
2018-08-24T21:37:01.352Z,6.97
2018-08-24T21:39:30.801Z,6.87
2018-08-24T21:41:59.609Z,6.10
2018-08-24T21:44:28.219Z,6.30
2018-08-24T21:46:56.808Z,6.43
2018-08-24T21:49:25.356Z,6.03
2018-08-24T21:51:53.976Z,7.80
2018-08-24T21:54:22.520Z,9.10
2018-08-24T21:56:51.101Z,8.30
2018-08-24T21:59:19.702Z,8.97
2018-08-24T22:01:48.305Z,9.37
2018-08-24T22:04:16.941Z,9.33
2018-08-24T22:06:46.150Z,9.23
2018-08-24T22:09:14.799Z,10.20
2018-08-24T22:11:43.674Z,8.53
2018-08-24T22:14:12.280Z,8.03
2018-08-24T22:16:41.138Z,10.00
2018-08-24T22:22:13.489Z,13.73
2018-08-24T22:24:42.080Z,11.33
2018-08-24T22:27:10.691Z,11.30
2018-08-24T22:29:39.291Z,8.97
2018-08-24T22:32:07.883Z,8.63
2018-08-24T22:34:36.425Z,8.93
2018-08-24T22:37:05.028Z,8.40
2018-08-24T22:39:33.735Z,8.87
2018-08-24T22:42:02.324Z,7.13
2018-08-24T22:44:30.948Z,7.27
2018-08-24T22:46:59.579Z,5.20
2018-08-24T22:49:28.183Z,5.10
2018-08-24T22:51:56.758Z,6.30
2018-08-24T22:54:25.356Z,4.37
2018-08-24T22:56:54.000Z,4.50
2018-08-24T22:59:22.655Z,4.13
2018-08-24T23:01:51.236Z,3.60
2018-08-24T23:04:19.808Z,4.70
2018-08-24T23:06:48.412Z,3.77
2018-08-24T23:09:17.202Z,4.30
2018-08-24T23:11:45.810Z,3.50
2018-08-24T23:14:14.407Z,4.20
2018-08-24T23:16:42.955Z,3.43
2018-08-24T23:19:11.552Z,4.03
2018-08-24T23:21:40.096Z,3.70
2018-08-24T23:24:08.664Z,3.93
2018-08-24T23:26:37.227Z,4.50
2018-08-24T23:29:06.223Z,4.47
2018-08-24T23:31:34.794Z,4.60
2018-08-24T23:34:03.385Z,4.57
2018-08-24T23:36:31.938Z,5.03
2018-08-24T23:39:00.455Z,4.97
2018-08-24T23:41:29.047Z,5.10
2018-08-24T23:43:57.729Z,4.80
2018-08-24T23:46:26.325Z,5.13
2018-08-24T23:48:55.699Z,5.27
2018-08-24T23:51:24.364Z,5.10
2018-08-24T23:53:52.926Z,5.17
2018-08-24T23:56:21.477Z,5.37
2018-08-24T23:58:50.034Z,6.33
